Airfield :
LOGIN :

Register | Disclaimer

   EN    FR    IT 

 










Legend :    VFR   Marginal VFR   IFR   Intensive IFR   Very Intensive IFR
Visi :
Ceiling :
>= 8 km
>= 3000ft
5 to 8 km
1000 to 3000 ft
1500m to 5 km
500 to 1000 ft
800 to 1500m
200 to 500 ft
< 800m
< 200 ft
Symbols :   Thunderstorms  Fog  Heavy snow  Heavy precipitations  Wind > 20 kt
SIGMETs :     Misc.  Thunderstorms  Icing  Turbulence  Mountain Waves  Volcanic Ashes







- Airport Elevation : 218 ft
- IATA code : LBG
- Download approach charts


LFPB - Paris / Le Bourget

CURRENT METAR :
  • 231330Z AUTO 11011KT 9999 BKN037 OVC046 14/06 Q1009 TEMPO 11015G25KT 3000 RA SCT020CB

EXPIRED METARs :
  • 231300Z AUTO 11008KT 9999 FEW035 BKN044 BKN060 14/07 Q1009 TEMPO 11015G25KT 3000 RA SCT020CB
  • 231230Z AUTO 11009KT 070V140 9999 BKN038 BKN058 OVC074 14/07 Q1009 TEMPO 11015G25KT 3000 RA SCT020CB
  • 231200Z AUTO 13006KT 9999 SCT037 BKN078 13/07 Q1009 NOSIG
  • 231130Z AUTO 11008KT 9999 FEW022 OVC070 12/07 Q1009 NOSIG
  • 231100Z AUTO 11010KT 9999 -RA FEW047 BKN062 OVC072 11/07 Q1009 TEMPO 10015G25KT 3000 RA SCT013CB BKN015

TAF TAF LFPB
Valid from the 23 at 12:00 until the 24 at 12:00 UTC


231100Z 2312/2412 12010KT 9999 FEW025 BKN060
PROB40
TEMPO 2314/2321 11015G25KT 3000 RA BKN018
PROB30
TEMPO 2314/2317 -TSRA SCT020CB
BECMG 2404/2406 03005KT
PROB30 2404/2407 4000 -RA BR BKN008
ATIS : +33 1 48 62 43 92
No reported NOTAMs for that airfield.



MET'MAP, your aeronautical weather chart ! - Copyright ORBIFLY December 2007 - Disclaimer

ORBIFLY MET'MAP TEAM :

Programming & Development : Alexandra Zaïnal
Concept & Development : Baudouin d'Aumeries
Co-Development & Prog : Marc-Olivier Méhu
Technical & hardware support : Manuel Goepfert

Contact : metmap@orbifly.com




SOURCES & CREDITS :

   NOAA